sensor_id;sensor_type;location;lat;lon;timestamp;P1;durP1;ratioP1;P2;durP2;ratioP2
23768;SDS011;12064;50.890;5.424;2024-03-08T00:08:28;3.72;;;3.42;;
23768;SDS011;12064;50.890;5.424;2024-03-08T00:17:23;3.70;;;3.40;;
23768;SDS011;12064;50.890;5.424;2024-03-08T00:26:13;4.43;;;3.42;;
23768;SDS011;12064;50.890;5.424;2024-03-08T00:35:04;4.15;;;3.75;;
23768;SDS011;12064;50.890;5.424;2024-03-08T00:43:58;4.35;;;3.67;;
23768;SDS011;12064;50.890;5.424;2024-03-08T00:52:49;3.85;;;3.40;;
23768;SDS011;12064;50.890;5.424;2024-03-08T01:01:40;4.25;;;3.72;;
23768;SDS011;12064;50.890;5.424;2024-03-08T01:10:31;3.92;;;3.60;;
23768;SDS011;12064;50.890;5.424;2024-03-08T01:19:21;4.15;;;3.53;;
23768;SDS011;12064;50.890;5.424;2024-03-08T01:28:13;4.43;;;3.80;;
23768;SDS011;12064;50.890;5.424;2024-03-08T01:37:04;4.78;;;3.70;;
23768;SDS011;12064;50.890;5.424;2024-03-08T01:45:59;4.25;;;3.47;;
23768;SDS011;12064;50.890;5.424;2024-03-08T01:54:50;3.80;;;3.50;;
23768;SDS011;12064;50.890;5.424;2024-03-08T02:03:41;3.97;;;3.47;;
23768;SDS011;12064;50.890;5.424;2024-03-08T02:12:33;3.90;;;3.60;;
23768;SDS011;12064;50.890;5.424;2024-03-08T02:21:24;4.63;;;3.53;;
23768;SDS011;12064;50.890;5.424;2024-03-08T02:30:19;4.20;;;3.80;;
23768;SDS011;12064;50.890;5.424;2024-03-08T02:39:10;4.22;;;3.83;;
23768;SDS011;12064;50.890;5.424;2024-03-08T02:48:02;4.70;;;3.63;;
23768;SDS011;12064;50.890;5.424;2024-03-08T02:56:53;3.85;;;3.42;;
23768;SDS011;12064;50.890;5.424;2024-03-08T03:05:43;4.23;;;3.77;;
23768;SDS011;12064;50.890;5.424;2024-03-08T03:14:37;4.50;;;3.88;;
23768;SDS011;12064;50.890;5.424;2024-03-08T03:23:28;4.20;;;3.70;;
23768;SDS011;12064;50.890;5.424;2024-03-08T03:32:23;6.10;;;3.70;;
23768;SDS011;12064;50.890;5.424;2024-03-08T03:41:14;4.25;;;3.78;;
23768;SDS011;12064;50.890;5.424;2024-03-08T03:50:05;4.80;;;4.10;;
23768;SDS011;12064;50.890;5.424;2024-03-08T03:58:57;4.63;;;3.90;;
23768;SDS011;12064;50.890;5.424;2024-03-08T04:07:47;3.83;;;3.50;;
23768;SDS011;12064;50.890;5.424;2024-03-08T04:16:38;4.53;;;3.55;;
23768;SDS011;12064;50.890;5.424;2024-03-08T04:25:29;5.28;;;3.58;;
23768;SDS011;12064;50.890;5.424;2024-03-08T04:34:21;5.10;;;3.95;;
23768;SDS011;12064;50.890;5.424;2024-03-08T04:43:11;5.60;;;3.75;;
23768;SDS011;12064;50.890;5.424;2024-03-08T04:52:03;4.95;;;3.80;;
23768;SDS011;12064;50.890;5.424;2024-03-08T05:00:54;5.68;;;3.70;;
23768;SDS011;12064;50.890;5.424;2024-03-08T05:09:45;5.03;;;3.70;;
23768;SDS011;12064;50.890;5.424;2024-03-08T05:18:41;6.15;;;3.70;;
23768;SDS011;12064;50.890;5.424;2024-03-08T05:27:32;5.03;;;3.53;;
23768;SDS011;12064;50.890;5.424;2024-03-08T05:36:23;3.77;;;3.30;;
23768;SDS011;12064;50.890;5.424;2024-03-08T05:45:13;4.10;;;3.53;;
23768;SDS011;12064;50.890;5.424;2024-03-08T05:54:06;3.80;;;3.33;;
23768;SDS011;12064;50.890;5.424;2024-03-08T06:03:00;4.53;;;3.40;;
23768;SDS011;12064;50.890;5.424;2024-03-08T06:11:51;4.18;;;3.55;;
23768;SDS011;12064;50.890;5.424;2024-03-08T06:20:43;3.97;;;3.15;;
23768;SDS011;12064;50.890;5.424;2024-03-08T06:29:34;3.43;;;3.13;;
23768;SDS011;12064;50.890;5.424;2024-03-08T06:38:25;3.90;;;3.30;;
23768;SDS011;12064;50.890;5.424;2024-03-08T06:47:15;6.07;;;3.75;;
23768;SDS011;12064;50.890;5.424;2024-03-08T06:56:07;5.40;;;4.63;;
23768;SDS011;12064;50.890;5.424;2024-03-08T07:04:58;5.40;;;4.68;;
23768;SDS011;12064;50.890;5.424;2024-03-08T07:13:49;5.93;;;5.43;;
23768;SDS011;12064;50.890;5.424;2024-03-08T07:22:39;8.80;;;6.07;;
23768;SDS011;12064;50.890;5.424;2024-03-08T07:31:30;7.82;;;6.05;;
23768;SDS011;12064;50.890;5.424;2024-03-08T07:40:39;7.75;;;5.72;;
23768;SDS011;12064;50.890;5.424;2024-03-08T07:49:34;8.18;;;6.22;;
23768;SDS011;12064;50.890;5.424;2024-03-08T07:58:27;7.43;;;6.65;;
23768;SDS011;12064;50.890;5.424;2024-03-08T08:07:18;8.32;;;6.63;;
23768;SDS011;12064;50.890;5.424;2024-03-08T08:16:09;7.10;;;6.25;;
23768;SDS011;12064;50.890;5.424;2024-03-08T08:25:00;9.80;;;8.80;;
23768;SDS011;12064;50.890;5.424;2024-03-08T08:33:51;8.55;;;7.32;;
23768;SDS011;12064;50.890;5.424;2024-03-08T08:42:48;8.40;;;6.38;;
23768;SDS011;12064;50.890;5.424;2024-03-08T08:51:38;9.77;;;6.80;;
23768;SDS011;12064;50.890;5.424;2024-03-08T09:00:29;7.60;;;5.83;;
23768;SDS011;12064;50.890;5.424;2024-03-08T09:09:21;7.10;;;5.82;;
23768;SDS011;12064;50.890;5.424;2024-03-08T09:18:12;6.75;;;5.47;;
23768;SDS011;12064;50.890;5.424;2024-03-08T09:27:02;6.67;;;5.90;;
23768;SDS011;12064;50.890;5.424;2024-03-08T09:35:53;6.28;;;5.68;;
23768;SDS011;12064;50.890;5.424;2024-03-08T09:44:44;5.75;;;5.22;;
23768;SDS011;12064;50.890;5.424;2024-03-08T09:53:36;5.68;;;5.18;;
23768;SDS011;12064;50.890;5.424;2024-03-08T10:02:26;5.47;;;4.97;;
23768;SDS011;12064;50.890;5.424;2024-03-08T10:11:18;6.15;;;5.15;;
23768;SDS011;12064;50.890;5.424;2024-03-08T10:20:18;5.68;;;5.07;;
23768;SDS011;12064;50.890;5.424;2024-03-08T10:29:09;5.85;;;5.22;;
23768;SDS011;12064;50.890;5.424;2024-03-08T10:38:00;5.40;;;4.75;;
23768;SDS011;12064;50.890;5.424;2024-03-08T10:56:04;5.05;;;4.65;;
23768;SDS011;12064;50.890;5.424;2024-03-08T11:04:54;5.20;;;4.72;;
23768;SDS011;12064;50.890;5.424;2024-03-08T11:13:46;5.80;;;5.00;;
23768;SDS011;12064;50.890;5.424;2024-03-08T11:22:37;5.93;;;4.95;;
23768;SDS011;12064;50.890;5.424;2024-03-08T11:31:31;5.30;;;4.70;;
23768;SDS011;12064;50.890;5.424;2024-03-08T11:40:24;5.13;;;4.70;;
23768;SDS011;12064;50.890;5.424;2024-03-08T11:49:17;5.10;;;4.60;;
23768;SDS011;12064;50.890;5.424;2024-03-08T11:58:08;5.35;;;4.85;;
23768;SDS011;12064;50.890;5.424;2024-03-08T12:07:02;5.47;;;4.88;;
23768;SDS011;12064;50.890;5.424;2024-03-08T12:15:58;8.27;;;7.37;;
23768;SDS011;12064;50.890;5.424;2024-03-08T12:25:02;5.50;;;4.80;;
23768;SDS011;12064;50.890;5.424;2024-03-08T12:33:55;9.57;;;5.00;;
23768;SDS011;12064;50.890;5.424;2024-03-08T12:42:48;7.95;;;4.82;;
23768;SDS011;12064;50.890;5.424;2024-03-08T12:51:39;7.00;;;5.38;;
23768;SDS011;12064;50.890;5.424;2024-03-08T13:00:31;5.80;;;4.75;;
23768;SDS011;12064;50.890;5.424;2024-03-08T13:09:22;6.13;;;5.05;;
23768;SDS011;12064;50.890;5.424;2024-03-08T13:18:13;5.20;;;4.70;;
23768;SDS011;12064;50.890;5.424;2024-03-08T13:27:06;7.28;;;4.60;;
23768;SDS011;12064;50.890;5.424;2024-03-08T13:36:09;6.65;;;4.57;;
23768;SDS011;12064;50.890;5.424;2024-03-08T13:45:07;6.05;;;4.60;;
23768;SDS011;12064;50.890;5.424;2024-03-08T13:54:01;7.45;;;4.70;;
23768;SDS011;12064;50.890;5.424;2024-03-08T14:02:52;6.40;;;4.93;;
23768;SDS011;12064;50.890;5.424;2024-03-08T14:11:44;5.28;;;4.72;;
23768;SDS011;12064;50.890;5.424;2024-03-08T14:20:34;5.45;;;4.15;;
23768;SDS011;12064;50.890;5.424;2024-03-08T14:29:25;5.60;;;4.27;;
23768;SDS011;12064;50.890;5.424;2024-03-08T14:38:19;4.50;;;4.10;;
23768;SDS011;12064;50.890;5.424;2024-03-08T14:47:10;5.22;;;4.63;;
23768;SDS011;12064;50.890;5.424;2024-03-08T14:56:01;5.13;;;4.63;;
23768;SDS011;12064;50.890;5.424;2024-03-08T15:04:53;4.43;;;4.03;;
23768;SDS011;12064;50.890;5.424;2024-03-08T15:13:47;6.72;;;4.80;;
23768;SDS011;12064;50.890;5.424;2024-03-08T15:22:46;10.25;;;6.75;;
23768;SDS011;12064;50.890;5.424;2024-03-08T15:31:37;6.13;;;4.80;;
23768;SDS011;12064;50.890;5.424;2024-03-08T15:40:30;5.68;;;4.88;;
23768;SDS011;12064;50.890;5.424;2024-03-08T15:49:22;5.10;;;4.60;;
23768;SDS011;12064;50.890;5.424;2024-03-08T15:58:16;5.60;;;4.90;;
23768;SDS011;12064;50.890;5.424;2024-03-08T16:07:07;5.85;;;4.32;;
23768;SDS011;12064;50.890;5.424;2024-03-08T16:15:57;4.73;;;4.33;;
23768;SDS011;12064;50.890;5.424;2024-03-08T16:24:53;6.13;;;4.22;;
23768;SDS011;12064;50.890;5.424;2024-03-08T16:33:46;4.78;;;3.83;;
23768;SDS011;12064;50.890;5.424;2024-03-08T16:42:37;4.65;;;3.92;;
23768;SDS011;12064;50.890;5.424;2024-03-08T16:51:29;5.38;;;3.90;;
23768;SDS011;12064;50.890;5.424;2024-03-08T17:00:20;5.80;;;4.35;;
23768;SDS011;12064;50.890;5.424;2024-03-08T17:09:12;7.03;;;4.63;;
23768;SDS011;12064;50.890;5.424;2024-03-08T17:18:03;7.20;;;4.47;;
23768;SDS011;12064;50.890;5.424;2024-03-08T17:26:58;5.38;;;4.57;;
23768;SDS011;12064;50.890;5.424;2024-03-08T17:35:49;6.13;;;4.95;;
23768;SDS011;12064;50.890;5.424;2024-03-08T17:44:42;5.47;;;4.97;;
23768;SDS011;12064;50.890;5.424;2024-03-08T17:53:34;7.28;;;5.22;;
23768;SDS011;12064;50.890;5.424;2024-03-08T18:02:25;6.25;;;5.05;;
23768;SDS011;12064;50.890;5.424;2024-03-08T18:11:16;6.20;;;5.22;;
23768;SDS011;12064;50.890;5.424;2024-03-08T18:20:07;6.70;;;4.40;;
23768;SDS011;12064;50.890;5.424;2024-03-08T18:29:04;4.53;;;4.07;;
23768;SDS011;12064;50.890;5.424;2024-03-08T18:37:55;6.32;;;4.55;;
23768;SDS011;12064;50.890;5.424;2024-03-08T18:46:45;5.38;;;4.57;;
23768;SDS011;12064;50.890;5.424;2024-03-08T18:55:36;4.77;;;4.27;;
23768;SDS011;12064;50.890;5.424;2024-03-08T19:04:27;5.22;;;4.72;;
23768;SDS011;12064;50.890;5.424;2024-03-08T19:13:18;4.32;;;3.92;;
23768;SDS011;12064;50.890;5.424;2024-03-08T19:22:08;4.47;;;3.90;;
23768;SDS011;12064;50.890;5.424;2024-03-08T19:30:59;5.57;;;4.43;;
23768;SDS011;12064;50.890;5.424;2024-03-08T19:39:49;4.40;;;4.00;;
23768;SDS011;12064;50.890;5.424;2024-03-08T19:48:40;4.43;;;4.03;;
23768;SDS011;12064;50.890;5.424;2024-03-08T19:57:33;4.40;;;3.67;;
23768;SDS011;12064;50.890;5.424;2024-03-08T20:06:23;4.47;;;3.80;;
23768;SDS011;12064;50.890;5.424;2024-03-08T20:15:14;3.92;;;3.50;;
23768;SDS011;12064;50.890;5.424;2024-03-08T20:24:06;4.13;;;3.72;;
23768;SDS011;12064;50.890;5.424;2024-03-08T20:33:02;4.93;;;3.78;;
23768;SDS011;12064;50.890;5.424;2024-03-08T20:41:53;4.25;;;3.75;;
23768;SDS011;12064;50.890;5.424;2024-03-08T20:50:44;4.05;;;3.30;;
23768;SDS011;12064;50.890;5.424;2024-03-08T20:59:35;5.70;;;3.75;;
23768;SDS011;12064;50.890;5.424;2024-03-08T21:08:26;5.10;;;3.70;;
23768;SDS011;12064;50.890;5.424;2024-03-08T21:17:16;4.25;;;3.40;;
23768;SDS011;12064;50.890;5.424;2024-03-08T21:26:08;3.83;;;3.50;;
23768;SDS011;12064;50.890;5.424;2024-03-08T21:35:04;5.38;;;3.70;;
23768;SDS011;12064;50.890;5.424;2024-03-08T21:43:58;4.07;;;3.67;;
23768;SDS011;12064;50.890;5.424;2024-03-08T21:52:50;4.28;;;3.88;;
23768;SDS011;12064;50.890;5.424;2024-03-08T22:01:41;3.80;;;3.47;;
23768;SDS011;12064;50.890;5.424;2024-03-08T22:10:33;5.82;;;3.60;;
23768;SDS011;12064;50.890;5.424;2024-03-08T22:19:24;4.15;;;3.75;;
23768;SDS011;12064;50.890;5.424;2024-03-08T22:28:15;4.68;;;3.75;;
23768;SDS011;12064;50.890;5.424;2024-03-08T22:37:07;4.30;;;3.38;;
23768;SDS011;12064;50.890;5.424;2024-03-08T22:46:03;4.43;;;4.03;;
23768;SDS011;12064;50.890;5.424;2024-03-08T22:54:55;3.92;;;3.53;;
23768;SDS011;12064;50.890;5.424;2024-03-08T23:03:46;5.22;;;3.65;;
23768;SDS011;12064;50.890;5.424;2024-03-08T23:12:37;3.88;;;3.53;;
23768;SDS011;12064;50.890;5.424;2024-03-08T23:21:28;4.40;;;3.63;;
23768;SDS011;12064;50.890;5.424;2024-03-08T23:30:21;4.82;;;3.60;;
23768;SDS011;12064;50.890;5.424;2024-03-08T23:39:13;3.95;;;3.30;;
23768;SDS011;12064;50.890;5.424;2024-03-08T23:48:05;3.70;;;3.40;;
23768;SDS011;12064;50.890;5.424;2024-03-08T23:56:56;4.95;;;4.00;;
